createdAt,value
2019-02-22T00:00:17.445Z,43.60
2019-02-22T00:01:17.452Z,43.60
2019-02-22T00:02:17.417Z,43.60
2019-02-22T00:03:17.398Z,43.60
2019-02-22T00:04:17.389Z,43.60
2019-02-22T00:05:17.378Z,43.60
2019-02-22T00:06:17.397Z,43.60
2019-02-22T00:07:17.359Z,43.60
2019-02-22T00:08:17.341Z,43.70
2019-02-22T00:09:17.333Z,43.70
2019-02-22T00:10:17.322Z,43.70
2019-02-22T00:11:17.310Z,43.70
2019-02-22T00:12:17.326Z,43.70
2019-02-22T00:13:17.289Z,43.70
2019-02-22T00:14:17.333Z,43.70
2019-02-22T00:15:17.273Z,43.70
2019-02-22T00:16:17.271Z,43.70
2019-02-22T00:17:17.241Z,43.70
2019-02-22T00:18:17.237Z,43.70
2019-02-22T00:19:17.223Z,43.70
2019-02-22T00:20:17.261Z,43.70
2019-02-22T00:21:17.205Z,43.70
2019-02-22T00:22:17.186Z,43.70
2019-02-22T00:23:17.181Z,43.70
2019-02-22T00:24:17.172Z,43.80
2019-02-22T00:25:17.157Z,43.80
2019-02-22T00:26:17.180Z,43.80
2019-02-22T00:27:17.214Z,43.80
2019-02-22T00:28:17.127Z,43.80
2019-02-22T00:29:17.114Z,43.80
2019-02-22T00:30:17.145Z,43.80
2019-02-22T00:31:17.094Z,43.80
2019-02-22T00:32:17.080Z,43.80
2019-02-22T00:33:17.068Z,43.80
2019-02-22T00:34:17.095Z,43.80
2019-02-22T00:35:17.107Z,43.80
2019-02-22T00:36:17.182Z,43.80
2019-02-22T00:37:17.131Z,43.80
2019-02-22T00:38:17.017Z,43.80
2019-02-22T00:39:16.999Z,43.80
2019-02-22T00:40:16.988Z,43.80
2019-02-22T00:41:16.977Z,43.80
2019-02-22T00:42:16.996Z,43.80
2019-02-22T00:43:16.955Z,43.80
2019-02-22T00:44:16.951Z,43.80
2019-02-22T00:45:16.960Z,43.80
2019-02-22T00:46:16.921Z,43.80
2019-02-22T00:47:16.907Z,43.80
2019-02-22T00:48:16.897Z,43.80
2019-02-22T00:49:16.924Z,43.80
2019-02-22T00:50:16.876Z,43.80
2019-02-22T00:51:16.864Z,43.80
2019-02-22T00:52:16.852Z,43.80
2019-02-22T00:53:16.843Z,43.80
2019-02-22T00:54:16.868Z,43.80
2019-02-22T00:55:16.821Z,43.80
2019-02-22T00:56:16.808Z,43.80
2019-02-22T00:57:16.806Z,43.80
2019-02-22T00:58:16.785Z,43.80
2019-02-22T00:59:16.785Z,43.80
2019-02-22T01:00:16.800Z,43.80
2019-02-22T01:01:16.783Z,43.80
2019-02-22T01:02:16.751Z,43.80
2019-02-22T01:03:16.731Z,43.80
2019-02-22T01:04:16.726Z,43.80
2019-02-22T01:05:16.740Z,43.80
2019-02-22T01:06:16.699Z,43.80
2019-02-22T01:07:16.687Z,43.80
2019-02-22T01:08:16.676Z,43.80
2019-02-22T01:09:16.672Z,43.90
2019-02-22T01:10:16.655Z,43.90
2019-02-22T01:11:16.669Z,43.90
2019-02-22T01:12:16.632Z,43.90
2019-02-22T01:13:16.631Z,43.80
2019-02-22T01:14:16.642Z,43.80
2019-02-22T01:15:16.596Z,43.90
2019-02-22T01:16:16.814Z,43.80
2019-02-22T01:17:16.581Z,43.80
2019-02-22T01:18:16.569Z,43.90
2019-02-22T01:19:16.573Z,43.90
2019-02-22T01:20:16.542Z,43.90
2019-02-22T01:21:16.535Z,43.90
2019-02-22T01:22:16.553Z,43.90
2019-02-22T01:23:16.512Z,43.90
2019-02-22T01:24:16.503Z,43.90
2019-02-22T01:25:16.502Z,43.90
2019-02-22T01:26:16.477Z,43.90
2019-02-22T01:27:16.501Z,43.90
2019-02-22T01:28:16.458Z,43.90
2019-02-22T01:29:16.444Z,43.90
2019-02-22T01:30:16.676Z,43.90
2019-02-22T01:31:16.420Z,43.90
2019-02-22T01:32:16.411Z,43.90
2019-02-22T01:33:16.398Z,43.90
2019-02-22T01:34:16.390Z,43.90
2019-02-22T01:35:16.377Z,43.90
2019-02-22T01:36:16.402Z,44.00
2019-02-22T01:37:16.364Z,43.90
2019-02-22T01:38:16.348Z,43.90
2019-02-22T01:39:16.336Z,43.90
2019-02-22T01:40:16.331Z,43.90
2019-02-22T01:41:16.339Z,44.00
2019-02-22T01:42:16.301Z,44.00
2019-02-22T01:43:16.289Z,44.00
2019-02-22T01:44:16.280Z,44.00
2019-02-22T01:45:16.268Z,44.00
2019-02-22T01:46:16.257Z,44.00
2019-02-22T01:47:16.472Z,44.00
2019-02-22T01:48:16.231Z,44.00
2019-02-22T01:49:16.218Z,44.00
2019-02-22T01:50:16.209Z,44.00
2019-02-22T01:51:16.193Z,44.00
2019-02-22T01:52:16.189Z,44.00
2019-02-22T01:53:16.203Z,44.00
2019-02-22T01:54:16.160Z,44.00
2019-02-22T01:55:16.152Z,44.00
2019-02-22T01:56:16.146Z,44.00
2019-02-22T01:57:16.129Z,44.00
2019-02-22T01:58:16.118Z,44.00
2019-02-22T01:59:16.133Z,44.00
2019-02-22T02:00:16.099Z,44.10
2019-02-22T02:01:16.082Z,44.00
2019-02-22T02:02:16.070Z,44.00
2019-02-22T02:03:16.066Z,44.00
2019-02-22T02:04:16.085Z,44.00
2019-02-22T02:05:16.041Z,44.00
2019-02-22T02:06:16.027Z,44.00
2019-02-22T02:07:16.018Z,44.00
2019-02-22T02:08:16.014Z,44.00
2019-02-22T02:09:15.998Z,44.00
2019-02-22T02:10:16.020Z,44.00
2019-02-22T02:11:16.004Z,44.10
2019-02-22T02:12:15.962Z,44.10
2019-02-22T02:13:15.950Z,44.10
2019-02-22T02:14:15.944Z,44.10
2019-02-22T02:15:15.931Z,44.10
2019-02-22T02:16:15.950Z,44.10
2019-02-22T02:17:17.739Z,44.10
2019-02-22T02:18:15.897Z,44.10
2019-02-22T02:19:15.880Z,44.00
2019-02-22T02:20:15.971Z,44.10
2019-02-22T02:21:15.863Z,44.10
2019-02-22T02:22:15.902Z,44.10
2019-02-22T02:23:15.838Z,44.12
2019-02-22T02:24:22.658Z,44.10
2019-02-22T02:25:15.819Z,44.10
2019-02-22T02:26:15.807Z,44.10
2019-02-22T02:27:15.798Z,44.10
2019-02-22T02:28:15.821Z,44.10
2019-02-22T02:29:15.769Z,44.10
2019-02-22T02:30:15.760Z,44.10
2019-02-22T02:31:15.752Z,44.10
2019-02-22T02:32:15.736Z,44.10
2019-02-22T02:33:15.731Z,44.10
2019-02-22T02:34:15.749Z,44.10
2019-02-22T02:35:15.706Z,44.10
2019-02-22T02:36:15.692Z,44.10
2019-02-22T02:37:15.685Z,44.10
2019-02-22T02:38:15.673Z,44.10
2019-02-22T02:39:15.959Z,44.10
2019-02-22T02:40:15.647Z,44.10
2019-02-22T02:41:15.639Z,44.10
2019-02-22T02:42:15.631Z,44.10
2019-02-22T02:43:15.616Z,44.10
2019-02-22T02:44:15.609Z,44.10
2019-02-22T02:45:15.632Z,44.10
2019-02-22T02:46:15.586Z,44.10
2019-02-22T02:47:15.571Z,44.10
2019-02-22T02:48:15.563Z,44.10
2019-02-22T02:49:15.576Z,44.10
2019-02-22T02:50:15.585Z,44.10
2019-02-22T02:51:15.524Z,44.10
2019-02-22T02:52:15.514Z,44.10
2019-02-22T02:53:15.507Z,44.10
2019-02-22T02:54:15.494Z,44.10
2019-02-22T02:55:15.488Z,44.10
2019-02-22T02:56:15.518Z,44.10
2019-02-22T02:57:15.464Z,44.10
2019-02-22T02:58:15.449Z,44.12
2019-02-22T02:59:15.440Z,44.10
2019-02-22T03:00:15.440Z,44.10
2019-02-22T03:01:15.463Z,44.12
2019-02-22T03:02:15.405Z,44.12
2019-02-22T03:03:15.397Z,44.10
2019-02-22T03:04:15.382Z,44.22
2019-02-22T03:05:15.373Z,44.20
2019-02-22T03:06:15.363Z,44.20
2019-02-22T03:07:15.407Z,44.20
2019-02-22T03:08:15.336Z,44.20
2019-02-22T03:09:15.330Z,44.20
2019-02-22T03:10:15.321Z,44.20
2019-02-22T03:11:20.817Z,44.20
2019-02-22T03:12:16.600Z,44.22
2019-02-22T03:13:15.286Z,44.20
2019-02-22T03:14:15.270Z,44.22
2019-02-22T03:15:15.263Z,44.22
2019-02-22T03:16:15.251Z,44.22
2019-02-22T03:17:15.239Z,44.20
2019-02-22T03:18:15.532Z,44.22
2019-02-22T03:19:15.228Z,44.22
2019-02-22T03:20:15.206Z,44.22
2019-02-22T03:21:15.192Z,44.22
2019-02-22T03:22:15.182Z,44.22
2019-02-22T03:23:15.169Z,44.32
2019-02-22T03:24:15.456Z,44.30
2019-02-22T03:25:15.153Z,44.30
2019-02-22T03:26:15.141Z,44.32
2019-02-22T03:27:15.123Z,44.30
2019-02-22T03:28:15.113Z,44.32
2019-02-22T03:29:15.103Z,44.30
2019-02-22T03:30:15.140Z,44.32
2019-02-22T03:31:15.085Z,44.30
2019-02-22T03:32:15.075Z,44.32
2019-02-22T03:33:15.060Z,44.32
2019-02-22T03:34:15.100Z,44.30
2019-02-22T03:35:15.038Z,44.30
2019-02-22T03:36:15.029Z,44.32
2019-02-22T03:37:15.020Z,44.30
2019-02-22T03:38:15.008Z,44.32
2019-02-22T03:39:14.989Z,44.32
2019-02-22T03:40:15.013Z,44.32
2019-02-22T03:41:14.973Z,44.32
2019-02-22T03:42:14.964Z,44.42
2019-02-22T03:43:14.953Z,44.32
2019-02-22T03:44:14.965Z,44.30
2019-02-22T03:45:14.967Z,44.30
2019-02-22T03:46:14.912Z,44.30
2019-02-22T03:47:14.904Z,44.32
2019-02-22T03:48:14.894Z,44.42
2019-02-22T03:49:14.882Z,44.40
2019-02-22T03:50:14.867Z,44.42
2019-02-22T03:51:14.892Z,44.42
2019-02-22T03:52:14.851Z,44.30
2019-02-22T03:53:14.842Z,44.42
2019-02-22T03:54:14.839Z,44.42
2019-02-22T03:55:14.814Z,44.42
2019-02-22T03:56:14.801Z,44.42
2019-02-22T03:57:14.827Z,44.42
2019-02-22T03:58:14.779Z,44.42
2019-02-22T03:59:14.775Z,44.42
2019-02-22T04:00:14.765Z,44.42
2019-02-22T04:01:14.750Z,44.42
2019-02-22T04:02:14.741Z,44.42
2019-02-22T04:03:14.763Z,44.42
2019-02-22T04:04:14.747Z,44.42
2019-02-22T04:05:14.710Z,44.32
2019-02-22T04:06:14.698Z,44.32
2019-02-22T04:07:14.682Z,44.42
2019-02-22T04:08:14.717Z,44.42
2019-02-22T04:09:14.657Z,44.42
2019-02-22T04:10:14.652Z,44.42
2019-02-22T04:11:14.763Z,44.42
2019-02-22T04:12:14.626Z,44.42
2019-02-22T04:13:14.624Z,44.42
2019-02-22T04:14:14.650Z,44.42
2019-02-22T04:15:14.592Z,44.42
2019-02-22T04:16:14.587Z,44.32
2019-02-22T04:17:14.571Z,44.32
2019-02-22T04:18:14.571Z,44.42
2019-02-22T04:19:14.547Z,44.42
2019-02-22T04:20:14.577Z,44.32
2019-02-22T04:21:14.526Z,44.32
2019-02-22T04:22:14.516Z,44.32
2019-02-22T04:23:14.503Z,44.32
2019-02-22T04:24:14.492Z,44.32
2019-02-22T04:25:14.479Z,44.32
2019-02-22T04:26:14.527Z,44.32
2019-02-22T04:27:14.455Z,44.32
2019-02-22T04:28:14.451Z,44.32
2019-02-22T04:29:14.439Z,44.32
2019-02-22T04:30:14.435Z,44.32
2019-02-22T04:31:14.426Z,44.32
2019-02-22T04:32:14.433Z,44.32
2019-02-22T04:33:14.394Z,44.32
2019-02-22T04:34:14.380Z,44.32
2019-02-22T04:35:14.366Z,44.32
2019-02-22T04:36:14.507Z,44.42
2019-02-22T04:37:14.351Z,44.42
2019-02-22T04:38:14.373Z,44.42
2019-02-22T04:39:14.328Z,44.42
2019-02-22T04:40:14.314Z,44.42
2019-02-22T04:41:14.306Z,44.42
2019-02-22T04:42:14.300Z,44.42
2019-02-22T04:43:14.280Z,44.42
2019-02-22T04:44:14.299Z,44.52
2019-02-22T04:45:14.256Z,44.52
2019-02-22T04:46:14.242Z,44.52
2019-02-22T04:47:14.237Z,44.52
2019-02-22T04:48:14.224Z,44.52
2019-02-22T04:49:14.261Z,44.52
2019-02-22T04:50:14.200Z,44.52
2019-02-22T04:51:14.194Z,44.52
2019-02-22T04:52:14.182Z,44.52
2019-02-22T04:53:14.171Z,44.52
2019-02-22T04:54:14.160Z,44.62
2019-02-22T04:55:14.188Z,44.62
2019-02-22T04:56:14.140Z,44.62
2019-02-22T04:57:14.123Z,44.62
2019-02-22T04:58:14.107Z,44.62
2019-02-22T04:59:14.097Z,44.62
2019-02-22T05:00:14.124Z,44.62
2019-02-22T05:01:14.114Z,44.62
2019-02-22T05:02:14.069Z,44.62
2019-02-22T05:03:14.056Z,44.62
2019-02-22T05:04:14.047Z,44.62
2019-02-22T05:05:14.034Z,44.62
2019-02-22T05:06:14.052Z,44.62
2019-02-22T05:07:14.008Z,44.62
2019-02-22T05:08:13.998Z,44.62
2019-02-22T05:09:13.996Z,44.52
2019-02-22T05:10:13.981Z,44.52
2019-02-22T05:11:14.015Z,44.52
2019-02-22T05:12:13.957Z,44.62
2019-02-22T05:13:13.942Z,44.52
2019-02-22T05:14:13.941Z,44.52
2019-02-22T05:15:13.920Z,44.52
2019-02-22T05:16:13.916Z,44.52
2019-02-22T05:17:13.963Z,44.62
2019-02-22T05:18:13.889Z,44.52
2019-02-22T05:19:13.879Z,44.52
2019-02-22T05:20:13.872Z,44.52
2019-02-22T05:21:13.899Z,44.52
2019-02-22T05:22:13.849Z,44.52
2019-02-22T05:23:13.864Z,44.52
2019-02-22T05:24:13.828Z,44.52
2019-02-22T05:25:13.815Z,44.52
2019-02-22T05:26:13.805Z,44.52
2019-02-22T05:27:13.789Z,44.52
2019-02-22T05:28:13.810Z,44.52
2019-02-22T05:29:13.765Z,44.50
2019-02-22T05:30:13.762Z,44.52
2019-02-22T05:31:13.773Z,44.52
2019-02-22T05:32:13.741Z,44.52
2019-02-22T05:33:13.719Z,44.50
2019-02-22T05:34:13.711Z,44.50
2019-02-22T05:35:13.697Z,44.50
2019-02-22T05:36:13.754Z,44.50
2019-02-22T05:37:13.684Z,44.50
2019-02-22T05:38:13.667Z,44.40
2019-02-22T05:39:18.959Z,44.40
2019-02-22T05:40:14.643Z,44.40
2019-02-22T05:41:13.637Z,44.40
2019-02-22T05:42:22.542Z,44.40
2019-02-22T05:43:14.614Z,44.40
2019-02-22T05:44:13.598Z,44.40
2019-02-22T05:45:13.591Z,44.40
2019-02-22T05:46:13.580Z,44.40
2019-02-22T05:47:13.596Z,44.40
2019-02-22T05:48:13.588Z,44.40
2019-02-22T05:49:13.544Z,44.40
2019-02-22T05:50:13.543Z,44.40
2019-02-22T05:51:13.522Z,44.40
2019-02-22T05:52:13.514Z,44.40
2019-02-22T05:53:13.499Z,44.40
2019-02-22T05:54:13.716Z,44.40
2019-02-22T05:55:13.480Z,44.40
2019-02-22T05:56:13.464Z,44.40
2019-02-22T05:57:14.373Z,44.40
2019-02-22T05:58:13.444Z,44.40
2019-02-22T05:59:13.430Z,44.40
2019-02-22T06:00:13.646Z,44.40
2019-02-22T06:01:13.411Z,44.40
2019-02-22T06:02:14.568Z,44.40
2019-02-22T06:03:13.393Z,44.30
2019-02-22T06:04:13.380Z,44.40
2019-02-22T06:05:13.362Z,44.30
2019-02-22T06:06:13.382Z,44.30
2019-02-22T06:07:14.535Z,44.30
2019-02-22T06:08:13.382Z,44.40
2019-02-22T06:09:13.318Z,44.30
2019-02-22T06:10:13.311Z,44.30
2019-02-22T06:11:13.303Z,44.30
2019-02-22T06:12:13.284Z,44.30
2019-02-22T06:13:13.275Z,44.30
2019-02-22T06:14:13.293Z,44.30
2019-02-22T06:15:13.253Z,44.30
2019-02-22T06:16:13.244Z,44.30
2019-02-22T06:17:14.796Z,44.30
2019-02-22T06:18:13.232Z,44.30
2019-02-22T06:19:13.234Z,44.30
2019-02-22T06:20:13.199Z,44.30
2019-02-22T06:21:15.283Z,44.40
2019-02-22T06:22:13.227Z,44.30
2019-02-22T06:23:13.166Z,44.40
2019-02-22T06:24:13.149Z,44.30
2019-02-22T06:25:13.143Z,44.30
2019-02-22T06:26:13.131Z,44.30
2019-02-22T06:27:13.119Z,44.30
2019-02-22T06:28:13.156Z,44.40
2019-02-22T06:29:13.095Z,44.40
2019-02-22T06:30:13.090Z,44.40
2019-02-22T06:31:13.075Z,44.40
2019-02-22T06:32:13.069Z,44.40
2019-02-22T06:33:13.054Z,44.40
2019-02-22T06:34:13.076Z,44.40
2019-02-22T06:35:13.049Z,44.40
2019-02-22T06:36:13.017Z,44.30
2019-02-22T06:37:13.199Z,44.40
2019-02-22T06:38:13.012Z,44.30
2019-02-22T06:39:12.988Z,44.30
2019-02-22T06:40:12.986Z,44.30
2019-02-22T06:41:12.966Z,44.30
2019-02-22T06:42:12.983Z,44.30
2019-02-22T06:43:13.161Z,44.30
2019-02-22T06:44:12.939Z,44.30
2019-02-22T06:45:12.916Z,44.30
2019-02-22T06:46:12.912Z,44.30
2019-02-22T06:47:12.899Z,44.30
2019-02-22T06:48:12.881Z,44.30
2019-02-22T06:49:13.151Z,44.30
2019-02-22T06:50:12.860Z,44.30
2019-02-22T06:51:12.852Z,44.30
2019-02-22T06:52:12.845Z,44.30
2019-02-22T06:53:12.826Z,44.30
2019-02-22T06:54:12.822Z,44.30
2019-02-22T06:55:12.849Z,44.30
2019-02-22T06:56:12.792Z,44.30
2019-02-22T06:57:12.791Z,44.30
2019-02-22T06:58:12.783Z,44.30
2019-02-22T06:59:12.765Z,44.30
2019-02-22T07:00:12.753Z,44.30
2019-02-22T07:01:12.780Z,44.30
2019-02-22T07:02:12.726Z,44.30
2019-02-22T07:03:12.757Z,44.30
2019-02-22T07:04:12.707Z,44.40
2019-02-22T07:05:12.694Z,44.40
2019-02-22T07:06:12.680Z,44.40
2019-02-22T07:07:12.669Z,44.40
2019-02-22T07:08:12.664Z,44.40
2019-02-22T07:09:12.681Z,44.50
2019-02-22T07:10:12.641Z,44.50
2019-02-22T07:11:12.627Z,44.50
2019-02-22T07:12:12.646Z,44.60
2019-02-22T07:13:12.601Z,44.60
2019-02-22T07:14:12.594Z,44.70
2019-02-22T07:15:12.614Z,44.70
2019-02-22T07:16:12.572Z,44.80
2019-02-22T07:17:12.825Z,44.90
2019-02-22T07:18:12.551Z,45.00
2019-02-22T07:19:12.542Z,45.00
2019-02-22T07:20:12.524Z,45.10
2019-02-22T07:21:12.519Z,45.20
2019-02-22T07:22:12.509Z,45.30
2019-02-22T07:23:12.538Z,45.40
2019-02-22T07:24:12.516Z,45.50
2019-02-22T07:25:12.494Z,45.60
2019-02-22T07:26:12.457Z,45.70
2019-02-22T07:27:12.462Z,45.80
2019-02-22T07:28:12.661Z,45.80
2019-02-22T07:29:12.429Z,45.80
2019-02-22T07:30:12.414Z,45.90
2019-02-22T07:31:12.402Z,46.00
2019-02-22T07:32:12.398Z,46.00
2019-02-22T07:33:12.380Z,46.11
2019-02-22T07:34:12.401Z,46.20
2019-02-22T07:35:14.395Z,46.30
2019-02-22T07:36:12.352Z,46.30
2019-02-22T07:37:12.338Z,46.30
2019-02-22T07:38:12.326Z,46.41
2019-02-22T07:39:12.348Z,46.61
2019-02-22T07:40:12.309Z,46.61
2019-02-22T07:41:12.296Z,46.70
2019-02-22T07:42:12.288Z,46.70
2019-02-22T07:43:12.270Z,46.70
2019-02-22T07:44:12.265Z,46.70
2019-02-22T07:45:12.375Z,46.58
2019-02-22T07:46:12.242Z,46.48
2019-02-22T07:47:12.231Z,46.38
2019-02-22T07:48:12.217Z,46.28
2019-02-22T07:49:12.206Z,46.16
2019-02-22T07:50:12.199Z,45.96
2019-02-22T07:51:12.238Z,45.86
2019-02-22T07:52:12.170Z,45.76
2019-02-22T07:53:12.162Z,45.56
2019-02-22T07:54:12.157Z,45.43
2019-02-22T07:55:12.141Z,45.34
2019-02-22T07:56:12.132Z,45.24
2019-02-22T07:57:12.159Z,45.04
2019-02-22T07:58:12.108Z,45.04
2019-02-22T07:59:12.095Z,44.93
2019-02-22T08:00:12.085Z,44.84
2019-02-22T08:01:12.078Z,44.84
2019-02-22T08:02:12.064Z,44.71
2019-02-22T08:03:12.081Z,44.71
2019-02-22T08:04:12.039Z,44.71
2019-02-22T08:05:12.038Z,44.62
2019-02-22T08:06:12.019Z,44.62
2019-02-22T08:07:12.008Z,44.62
2019-02-22T08:08:11.994Z,44.62
2019-02-22T08:09:12.037Z,44.62
2019-02-22T08:10:11.976Z,44.62
2019-02-22T08:11:11.968Z,44.71
2019-02-22T08:12:11.952Z,44.71
2019-02-22T08:13:19.099Z,44.71
2019-02-22T08:14:13.158Z,44.71
2019-02-22T08:15:11.931Z,44.71
2019-02-22T08:16:11.910Z,44.82
2019-02-22T08:17:14.545Z,44.82
2019-02-22T08:18:11.885Z,44.82
2019-02-22T08:19:11.879Z,44.92
2019-02-22T08:20:11.898Z,44.92
2019-02-22T08:21:11.857Z,44.92
2019-02-22T08:22:11.843Z,44.92
2019-02-22T08:23:11.830Z,44.92
2019-02-22T08:24:11.821Z,44.92
2019-02-22T08:25:11.804Z,44.92
2019-02-22T08:26:12.099Z,44.92
2019-02-22T08:27:11.782Z,45.01
2019-02-22T08:28:11.776Z,45.01
2019-02-22T08:29:11.766Z,45.01
2019-02-22T08:30:11.751Z,45.01
2019-02-22T08:31:11.743Z,45.01
2019-02-22T08:32:11.776Z,45.01
2019-02-22T08:33:11.723Z,45.12
2019-02-22T08:34:11.760Z,45.12
2019-02-22T08:35:11.696Z,45.12
2019-02-22T08:36:11.684Z,45.12
2019-02-22T08:37:11.680Z,45.12
2019-02-22T08:38:11.700Z,45.14
2019-02-22T08:39:11.663Z,45.14
2019-02-22T08:40:11.647Z,45.14
2019-02-22T08:41:11.633Z,45.14
2019-02-22T08:42:11.626Z,45.14
2019-02-22T08:43:11.611Z,45.14
2019-02-22T08:44:11.630Z,45.14
2019-02-22T08:45:11.602Z,45.14
2019-02-22T08:46:11.616Z,45.24
2019-02-22T08:47:11.565Z,45.24
2019-02-22T08:48:11.556Z,45.24
2019-02-22T08:49:11.581Z,45.24
2019-02-22T08:50:11.536Z,45.24
2019-02-22T08:51:11.521Z,45.24
2019-02-22T08:52:11.608Z,45.24
2019-02-22T08:53:11.543Z,45.24
2019-02-22T08:54:11.493Z,45.24
2019-02-22T08:55:11.481Z,45.24
2019-02-22T08:56:11.468Z,45.24
2019-02-22T08:57:11.455Z,45.24
2019-02-22T08:58:11.443Z,45.24
2019-02-22T08:59:11.672Z,45.34
2019-02-22T09:00:11.426Z,45.24
2019-02-22T09:01:11.418Z,45.24
2019-02-22T09:02:11.405Z,45.34
2019-02-22T09:03:11.389Z,45.34
2019-02-22T09:04:11.380Z,45.34
2019-02-22T09:05:11.402Z,45.34
2019-02-22T09:06:11.356Z,45.34
2019-02-22T09:07:11.346Z,45.34
2019-02-22T09:08:11.333Z,45.34
2019-02-22T09:09:11.332Z,45.43
2019-02-22T09:10:11.629Z,45.46
2019-02-22T09:11:11.301Z,45.43
2019-02-22T09:12:11.292Z,45.46
2019-02-22T09:13:11.284Z,45.46
2019-02-22T09:14:11.272Z,45.46
2019-02-22T09:15:11.261Z,45.46
2019-02-22T09:16:11.282Z,45.46
2019-02-22T09:17:11.232Z,45.46
2019-02-22T09:18:11.224Z,45.56
2019-02-22T09:19:11.216Z,45.56
2019-02-22T09:20:11.271Z,45.56
2019-02-22T09:21:11.194Z,45.56
2019-02-22T09:22:21.851Z,45.56
2019-02-22T09:23:12.171Z,45.46
2019-02-22T09:24:11.161Z,45.46
2019-02-22T09:25:11.149Z,45.46
2019-02-22T09:26:11.181Z,45.56
2019-02-22T09:27:11.127Z,45.56
2019-02-22T09:28:11.114Z,45.56
2019-02-22T09:29:11.108Z,45.66
2019-02-22T09:30:11.125Z,45.66
2019-02-22T09:31:11.085Z,45.66
2019-02-22T09:32:11.071Z,45.76
2019-02-22T09:33:11.066Z,45.86
2019-02-22T09:34:11.052Z,45.86
2019-02-22T09:35:11.095Z,45.86
2019-02-22T09:36:11.073Z,45.86
2019-02-22T09:37:11.020Z,45.76
2019-02-22T09:38:11.005Z,45.76
2019-02-22T09:39:10.991Z,45.76
2019-02-22T09:40:10.980Z,45.76
2019-02-22T09:41:10.982Z,45.76
2019-02-22T09:42:11.013Z,45.86
2019-02-22T09:43:10.951Z,45.86
2019-02-22T09:44:10.943Z,45.86
2019-02-22T09:45:10.932Z,45.86
2019-02-22T09:46:10.919Z,45.88
2019-02-22T09:47:10.903Z,45.88
2019-02-22T09:48:11.193Z,45.88
2019-02-22T09:49:10.884Z,45.88
2019-02-22T09:50:10.879Z,45.88
2019-02-22T09:51:10.872Z,45.98
2019-02-22T09:52:10.852Z,45.98
2019-02-22T09:53:10.840Z,45.98
2019-02-22T09:54:10.875Z,45.98
2019-02-22T09:55:10.824Z,45.98
2019-02-22T09:56:10.809Z,45.98
2019-02-22T09:57:10.791Z,45.98
2019-02-22T09:58:10.784Z,45.98
2019-02-22T09:59:10.769Z,45.98
2019-02-22T10:00:11.023Z,45.98
2019-02-22T10:01:10.751Z,45.98
2019-02-22T10:02:10.747Z,46.08
2019-02-22T10:03:10.736Z,46.08
2019-02-22T10:04:10.714Z,46.08
2019-02-22T10:05:10.711Z,46.08
2019-02-22T10:06:10.755Z,46.08
2019-02-22T10:07:10.685Z,46.08
2019-02-22T10:08:10.675Z,46.18
2019-02-22T10:09:10.666Z,46.18
2019-02-22T10:10:10.656Z,46.18
2019-02-22T10:11:10.646Z,46.18
2019-02-22T10:12:10.668Z,46.18
2019-02-22T10:13:10.625Z,46.18
2019-02-22T10:14:10.607Z,46.18
2019-02-22T10:15:10.596Z,46.18
2019-02-22T10:16:10.590Z,46.38
2019-02-22T10:17:10.630Z,46.38
2019-02-22T10:18:10.573Z,46.38
2019-02-22T10:19:10.553Z,46.38
2019-02-22T10:20:10.564Z,46.48
2019-02-22T10:21:10.528Z,46.48
2019-02-22T10:22:10.525Z,46.48
2019-02-22T10:23:10.538Z,46.48
2019-02-22T10:24:10.502Z,46.68
2019-02-22T10:25:10.483Z,46.78
2019-02-22T10:26:10.475Z,46.78
2019-02-22T10:27:12.089Z,46.68
2019-02-22T10:28:17.620Z,46.58
2019-02-22T10:29:11.446Z,46.61
2019-02-22T10:30:10.431Z,46.61
2019-02-22T10:31:10.425Z,46.61
2019-02-22T10:32:10.465Z,46.70
2019-02-22T10:33:10.399Z,46.81
2019-02-22T10:34:10.390Z,46.81
2019-02-22T10:35:10.382Z,46.81
2019-02-22T10:36:10.363Z,46.81
2019-02-22T10:37:10.355Z,46.91
2019-02-22T10:38:10.388Z,47.00
2019-02-22T10:39:10.331Z,47.00
2019-02-22T10:40:10.318Z,47.00
2019-02-22T10:41:10.309Z,47.00
2019-02-22T10:42:10.292Z,47.00
2019-02-22T10:43:10.287Z,47.11
2019-02-22T10:44:17.461Z,47.11
2019-02-22T10:45:11.263Z,47.20
2019-02-22T10:46:10.251Z,47.20
2019-02-22T10:47:10.238Z,47.11
2019-02-22T10:48:10.228Z,47.11
2019-02-22T10:49:10.265Z,47.11
2019-02-22T10:50:10.208Z,47.20
2019-02-22T10:51:10.196Z,47.11
2019-02-22T10:52:10.198Z,47.00
2019-02-22T10:53:10.172Z,47.20
2019-02-22T10:54:10.163Z,47.20
2019-02-22T10:55:10.195Z,47.11
2019-02-22T10:56:10.141Z,47.11
2019-02-22T10:57:10.134Z,47.11
2019-02-22T10:58:10.121Z,47.00
2019-02-22T10:59:10.112Z,47.20
2019-02-22T11:00:10.100Z,47.41
2019-02-22T11:01:10.137Z,47.41
2019-02-22T11:02:10.072Z,47.41
2019-02-22T11:03:10.069Z,47.50
2019-02-22T11:04:10.050Z,47.61
2019-02-22T11:05:10.041Z,47.61
2019-02-22T11:06:10.037Z,47.61
2019-02-22T11:07:10.213Z,47.61
2019-02-22T11:08:10.006Z,47.61
2019-02-22T11:09:10.005Z,47.61
2019-02-22T11:10:09.998Z,47.61
2019-02-22T11:11:09.978Z,47.50
2019-02-22T11:12:09.994Z,47.41
2019-02-22T11:13:10.179Z,47.31
2019-02-22T11:14:09.943Z,47.31
2019-02-22T11:15:09.931Z,47.31
2019-02-22T11:16:09.929Z,47.20
2019-02-22T11:17:09.910Z,47.11
2019-02-22T11:18:09.913Z,46.91
2019-02-22T11:19:09.924Z,46.91
2019-02-22T11:20:09.877Z,47.00
2019-02-22T11:21:09.879Z,47.20
2019-02-22T11:22:09.851Z,47.31
2019-02-22T11:23:09.848Z,47.31
2019-02-22T11:24:09.825Z,47.31
2019-02-22T11:25:10.114Z,47.41
2019-02-22T11:26:09.807Z,47.31
2019-02-22T11:27:09.798Z,47.31
2019-02-22T11:28:09.790Z,47.00
2019-02-22T11:29:09.771Z,47.11
2019-02-22T11:30:09.769Z,47.20
2019-02-22T11:31:09.777Z,47.31
2019-02-22T11:32:09.739Z,47.20
2019-02-22T11:33:09.734Z,47.20
2019-02-22T11:34:09.753Z,47.20
2019-02-22T11:35:09.718Z,47.31
2019-02-22T11:36:09.694Z,47.20
2019-02-22T11:37:09.684Z,47.20
2019-02-22T11:38:09.672Z,47.20
2019-02-22T11:39:09.661Z,47.11
2019-02-22T11:40:09.688Z,47.11
2019-02-22T11:41:09.637Z,47.11
2019-02-22T11:42:09.623Z,47.11
2019-02-22T11:43:09.614Z,47.11
2019-02-22T11:44:09.609Z,47.00
2019-02-22T11:45:09.603Z,46.91
2019-02-22T11:46:09.615Z,46.91
2019-02-22T11:47:09.572Z,46.91
2019-02-22T11:48:09.686Z,46.81
2019-02-22T11:49:09.550Z,46.81
2019-02-22T11:50:09.533Z,46.70
2019-02-22T11:51:09.524Z,46.70
2019-02-22T11:52:09.546Z,46.70
2019-02-22T11:53:09.504Z,46.70
2019-02-22T11:54:09.490Z,46.61
2019-02-22T11:55:09.480Z,46.50
2019-02-22T11:56:09.474Z,46.61
2019-02-22T11:57:09.455Z,46.41
2019-02-22T11:58:09.481Z,46.30
2019-02-22T11:59:09.435Z,46.30
2019-02-22T12:00:09.424Z,46.30
2019-02-22T12:01:09.654Z,46.41
2019-02-22T12:02:09.406Z,46.41
2019-02-22T12:03:23.611Z,46.30
2019-02-22T12:04:10.382Z,46.30
2019-02-22T12:05:09.372Z,46.20
2019-02-22T12:06:09.359Z,46.30
2019-02-22T12:07:09.376Z,46.30
2019-02-22T12:08:09.341Z,46.20
2019-02-22T12:09:09.327Z,46.20
2019-02-22T12:10:09.317Z,46.20
2019-02-22T12:11:09.332Z,46.20
2019-02-22T12:12:09.328Z,46.20
2019-02-22T12:13:09.279Z,46.20
2019-02-22T12:14:09.269Z,46.20
2019-02-22T12:15:09.259Z,46.30
2019-02-22T12:16:09.249Z,46.30
2019-02-22T12:17:09.238Z,46.30
2019-02-22T12:18:09.266Z,46.20
2019-02-22T12:19:09.211Z,46.20
2019-02-22T12:20:09.242Z,46.11
2019-02-22T12:21:09.189Z,46.20
2019-02-22T12:22:09.184Z,46.11
2019-02-22T12:23:09.168Z,46.11
2019-02-22T12:24:09.153Z,46.00
2019-02-22T12:25:09.143Z,46.00
2019-02-22T12:26:09.181Z,46.00
2019-02-22T12:27:09.121Z,45.90
2019-02-22T12:28:09.108Z,45.90
2019-02-22T12:29:09.100Z,45.90
2019-02-22T12:30:09.089Z,45.90
2019-02-22T12:31:09.079Z,45.90
2019-02-22T12:32:09.112Z,45.80
2019-02-22T12:33:09.051Z,45.80
2019-02-22T12:34:09.054Z,45.80
2019-02-22T12:35:09.030Z,45.80
2019-02-22T12:36:09.738Z,45.80
2019-02-22T12:37:09.054Z,45.80
2019-02-22T12:38:09.007Z,45.80
2019-02-22T12:39:08.991Z,45.80
2019-02-22T12:40:08.983Z,45.80
2019-02-22T12:41:08.966Z,45.80
2019-02-22T12:42:08.954Z,45.80
2019-02-22T12:43:08.982Z,45.70
2019-02-22T12:44:08.938Z,45.70
2019-02-22T12:45:08.923Z,45.70
2019-02-22T12:46:08.914Z,45.58
2019-02-22T12:47:08.908Z,45.58
2019-02-22T12:48:08.943Z,45.48
2019-02-22T12:49:08.881Z,45.48
2019-02-22T12:50:08.869Z,45.38
2019-02-22T12:51:08.860Z,45.38
2019-02-22T12:52:08.870Z,45.28